createdAt,value
2022-11-07T00:01:32.347Z,1.40
2022-11-07T00:04:19.850Z,1.27
2022-11-07T00:07:07.972Z,2.43
2022-11-07T00:09:55.254Z,1.43
2022-11-07T00:12:43.009Z,1.57
2022-11-07T00:15:30.340Z,1.00
2022-11-07T00:18:18.215Z,1.27
2022-11-07T00:21:06.729Z,1.13
2022-11-07T00:23:54.626Z,1.20
2022-11-07T00:26:41.887Z,1.00
2022-11-07T00:29:29.218Z,1.20
2022-11-07T00:32:16.501Z,1.43
2022-11-07T00:35:04.305Z,1.30
2022-11-07T00:37:51.526Z,0.97
2022-11-07T00:40:39.400Z,1.67
2022-11-07T00:43:26.909Z,1.47
2022-11-07T00:46:16.348Z,1.63
2022-11-07T00:49:04.054Z,0.87
2022-11-07T00:51:51.458Z,0.80
2022-11-07T00:54:39.364Z,0.90
2022-11-07T00:57:26.766Z,0.90
2022-11-07T01:00:14.782Z,1.57
2022-11-07T01:03:20.480Z,0.83
2022-11-07T01:06:08.589Z,2.03
2022-11-07T01:08:56.650Z,1.40
2022-11-07T01:11:44.954Z,1.43
2022-11-07T01:14:32.382Z,0.83
2022-11-07T01:17:20.273Z,1.57
2022-11-07T01:20:08.065Z,1.10
2022-11-07T01:22:55.874Z,1.07
2022-11-07T01:25:43.282Z,0.63
2022-11-07T01:28:31.245Z,0.70
2022-11-07T01:31:19.393Z,2.20
2022-11-07T01:34:07.525Z,1.20
2022-11-07T01:36:55.445Z,0.97
2022-11-07T01:39:42.777Z,1.00
2022-11-07T01:42:30.662Z,1.00
2022-11-07T01:45:26.338Z,0.97
2022-11-07T01:48:13.770Z,1.23
2022-11-07T01:51:01.460Z,0.93
2022-11-07T01:53:49.712Z,0.93
2022-11-07T01:56:39.361Z,1.13
2022-11-07T01:59:29.511Z,1.10
2022-11-07T02:02:17.779Z,1.23
2022-11-07T02:05:06.376Z,0.80
2022-11-07T02:07:54.146Z,0.80
2022-11-07T02:10:42.020Z,1.07
2022-11-07T02:13:31.321Z,0.90
2022-11-07T02:16:18.630Z,1.30
2022-11-07T02:19:09.733Z,1.20
2022-11-07T02:22:04.062Z,0.97
2022-11-07T02:24:53.419Z,0.83
2022-11-07T02:27:41.721Z,0.80
2022-11-07T02:30:30.477Z,1.53
2022-11-07T02:33:19.574Z,0.83
2022-11-07T02:36:08.447Z,0.83
2022-11-07T02:38:57.512Z,1.63
2022-11-07T02:41:46.046Z,1.10
2022-11-07T02:44:33.644Z,0.80
2022-11-07T02:47:21.560Z,1.37
2022-11-07T02:50:13.565Z,1.43
2022-11-07T02:53:01.264Z,0.93
2022-11-07T02:55:48.448Z,1.03
2022-11-07T02:58:36.830Z,1.37
2022-11-07T03:01:25.230Z,1.00
2022-11-07T03:04:13.259Z,1.03
2022-11-07T03:07:00.735Z,1.27
2022-11-07T03:09:48.452Z,1.00
2022-11-07T03:12:35.788Z,1.53
2022-11-07T03:15:23.666Z,3.00
2022-11-07T03:18:10.894Z,1.00
2022-11-07T03:20:58.321Z,3.27
2022-11-07T03:23:46.206Z,1.90
2022-11-07T03:26:33.404Z,1.17
2022-11-07T03:29:20.946Z,1.10
2022-11-07T03:32:08.798Z,1.10
2022-11-07T03:34:56.523Z,1.60
2022-11-07T03:37:45.591Z,1.10
2022-11-07T03:40:33.356Z,1.23
2022-11-07T03:43:21.071Z,1.10
2022-11-07T03:46:08.281Z,1.37
2022-11-07T03:48:56.042Z,1.80
2022-11-07T03:51:43.733Z,1.00
2022-11-07T03:54:31.125Z,2.03
2022-11-07T03:57:18.922Z,1.00
2022-11-07T04:00:07.289Z,1.33
2022-11-07T04:02:55.305Z,0.90
2022-11-07T04:05:43.242Z,0.97
2022-11-07T04:08:31.090Z,1.20
2022-11-07T04:11:36.952Z,1.53
2022-11-07T04:14:43.461Z,1.27
2022-11-07T04:17:31.112Z,1.10
2022-11-07T04:20:18.981Z,0.80
2022-11-07T04:23:06.676Z,1.07
2022-11-07T04:26:12.434Z,1.83
2022-11-07T04:29:00.104Z,0.73
2022-11-07T04:31:47.492Z,1.43
2022-11-07T04:34:35.234Z,1.07
2022-11-07T04:37:22.616Z,1.40
2022-11-07T04:40:11.160Z,1.63
2022-11-07T04:42:58.423Z,1.40
2022-11-07T04:45:46.276Z,2.00
2022-11-07T04:48:34.081Z,1.43
2022-11-07T04:51:22.554Z,2.70
2022-11-07T04:54:16.607Z,1.33
2022-11-07T04:57:04.339Z,1.10
2022-11-07T04:59:51.675Z,1.47
2022-11-07T05:02:39.576Z,1.27
2022-11-07T05:05:26.963Z,1.77
2022-11-07T05:08:14.805Z,1.30
2022-11-07T05:11:02.692Z,2.37
2022-11-07T05:13:50.082Z,1.67
2022-11-07T05:16:38.368Z,1.70
2022-11-07T05:19:25.812Z,3.00
2022-11-07T05:22:32.072Z,1.57
2022-11-07T05:25:19.273Z,1.97
2022-11-07T05:28:07.598Z,3.00
2022-11-07T05:30:55.616Z,1.33
2022-11-07T05:33:43.615Z,2.20
2022-11-07T05:36:30.828Z,2.33
2022-11-07T05:39:18.658Z,2.53
2022-11-07T05:42:06.590Z,1.10
2022-11-07T05:44:53.879Z,1.50
2022-11-07T05:47:41.634Z,1.30
2022-11-07T05:50:29.894Z,3.00
2022-11-07T05:53:17.679Z,1.80
2022-11-07T05:56:06.020Z,2.57
2022-11-07T05:58:53.365Z,2.63
2022-11-07T06:01:41.284Z,2.37
2022-11-07T06:04:29.121Z,3.20
2022-11-07T06:07:16.839Z,4.13
2022-11-07T06:10:04.805Z,5.47
2022-11-07T06:13:02.603Z,7.70
2022-11-07T06:15:50.481Z,6.50
2022-11-07T06:18:41.530Z,2.80
2022-11-07T06:21:29.054Z,4.30
2022-11-07T06:24:16.738Z,2.23
2022-11-07T06:27:04.596Z,2.47
2022-11-07T06:29:51.811Z,3.70
2022-11-07T06:32:44.567Z,3.37
2022-11-07T06:35:31.990Z,3.90
2022-11-07T06:38:19.568Z,2.90
2022-11-07T06:41:07.812Z,2.17
2022-11-07T06:43:55.316Z,4.57
2022-11-07T06:46:42.847Z,2.27
2022-11-07T06:49:30.632Z,1.67
2022-11-07T06:52:17.999Z,2.87
2022-11-07T06:55:05.352Z,1.70
2022-11-07T06:57:53.060Z,5.50
2022-11-07T07:00:40.403Z,1.77
2022-11-07T07:03:27.927Z,2.10
2022-11-07T07:06:16.510Z,2.10
2022-11-07T07:09:06.725Z,2.70
2022-11-07T07:11:54.612Z,1.57
2022-11-07T07:14:41.852Z,7.13
2022-11-07T07:17:29.760Z,1.80
2022-11-07T07:20:17.617Z,1.10
2022-11-07T07:23:05.904Z,1.50
2022-11-07T07:25:53.338Z,1.17
2022-11-07T07:28:41.647Z,1.37
2022-11-07T07:31:31.353Z,1.43
2022-11-07T07:34:19.089Z,2.33
2022-11-07T07:37:06.373Z,1.83
2022-11-07T07:39:54.130Z,1.73
2022-11-07T07:42:42.244Z,3.27
2022-11-07T07:45:30.183Z,2.37
2022-11-07T07:48:17.515Z,1.20
2022-11-07T07:51:05.005Z,1.55
2022-11-07T07:53:54.141Z,2.10
2022-11-07T07:56:41.572Z,1.83
2022-11-07T07:59:29.082Z,2.05
2022-11-07T08:02:16.919Z,1.33
2022-11-07T08:05:04.749Z,1.40
2022-11-07T08:07:52.392Z,2.00
2022-11-07T08:10:42.817Z,1.33
2022-11-07T08:13:30.720Z,1.95
2022-11-07T08:16:18.623Z,1.63
2022-11-07T08:19:06.036Z,3.10
2022-11-07T08:21:53.937Z,1.40
2022-11-07T08:24:43.376Z,0.85
2022-11-07T08:27:31.214Z,1.52
2022-11-07T08:30:18.569Z,1.75
2022-11-07T08:33:06.554Z,0.80
2022-11-07T08:35:58.063Z,1.30
2022-11-07T08:38:45.348Z,0.90
2022-11-07T08:41:33.224Z,0.70
2022-11-07T08:44:21.020Z,0.73
2022-11-07T08:47:08.738Z,1.33
2022-11-07T08:49:56.487Z,1.13
2022-11-07T08:52:43.798Z,0.98
2022-11-07T08:55:31.460Z,0.90
2022-11-07T08:58:19.366Z,1.95
2022-11-07T09:01:07.991Z,1.15
2022-11-07T09:03:58.326Z,1.60
2022-11-07T09:06:46.573Z,0.77
2022-11-07T09:09:33.859Z,0.93
2022-11-07T09:12:21.661Z,3.72
2022-11-07T09:15:09.117Z,0.93
2022-11-07T09:17:56.417Z,1.73
2022-11-07T09:20:43.659Z,1.00
2022-11-07T09:23:31.423Z,1.13
2022-11-07T09:26:18.965Z,0.80
2022-11-07T09:29:06.870Z,0.80
2022-11-07T09:31:54.130Z,2.00
2022-11-07T09:34:42.033Z,1.23
2022-11-07T09:37:29.860Z,0.95
2022-11-07T09:40:20.629Z,1.80
2022-11-07T09:43:11.553Z,1.95
2022-11-07T09:45:58.982Z,1.05
2022-11-07T09:48:59.703Z,0.82
2022-11-07T09:51:50.961Z,1.77
2022-11-07T09:54:40.765Z,1.20
2022-11-07T09:57:30.733Z,3.10
2022-11-07T10:00:20.060Z,0.85
2022-11-07T10:03:10.314Z,1.25
2022-11-07T10:06:03.833Z,3.25
2022-11-07T10:09:01.986Z,2.95
2022-11-07T10:11:54.174Z,1.33
2022-11-07T10:14:45.184Z,1.77
2022-11-07T10:17:36.771Z,2.03
2022-11-07T10:20:52.877Z,2.33
2022-11-07T10:24:03.169Z,0.80
2022-11-07T10:26:51.053Z,0.85
2022-11-07T10:29:45.251Z,1.50
2022-11-07T10:32:32.624Z,1.17
2022-11-07T10:35:31.181Z,0.90
2022-11-07T10:38:23.160Z,2.00
2022-11-07T10:41:16.012Z,1.02
2022-11-07T10:44:04.386Z,1.98
2022-11-07T10:46:54.603Z,1.67
2022-11-07T10:49:42.327Z,1.80
2022-11-07T10:52:30.477Z,2.70
2022-11-07T10:55:18.306Z,2.30
2022-11-07T10:58:07.950Z,0.98
2022-11-07T11:01:03.345Z,1.90
2022-11-07T11:03:51.375Z,2.53
2022-11-07T11:06:38.687Z,0.77
2022-11-07T11:09:30.515Z,3.67
2022-11-07T11:12:21.214Z,2.83
2022-11-07T11:15:13.340Z,1.60
2022-11-07T11:18:02.460Z,1.23
2022-11-07T11:21:01.883Z,1.55
2022-11-07T11:23:50.212Z,0.88
2022-11-07T11:26:38.208Z,0.93
2022-11-07T11:29:25.424Z,2.00
2022-11-07T11:32:18.634Z,0.90
2022-11-07T11:35:18.857Z,0.60
2022-11-07T11:38:20.097Z,2.20
2022-11-07T11:41:10.692Z,1.73
2022-11-07T11:43:58.893Z,0.85
2022-11-07T11:46:52.671Z,0.90
2022-11-07T11:49:49.511Z,2.30
2022-11-07T11:52:37.099Z,1.33
2022-11-07T11:55:26.234Z,0.70
2022-11-07T11:58:32.846Z,1.35
2022-11-07T12:01:39.410Z,1.45
2022-11-07T12:04:26.932Z,4.00
2022-11-07T12:07:20.648Z,0.73
2022-11-07T12:10:20.635Z,5.13
2022-11-07T12:13:20.312Z,2.08
2022-11-07T12:16:28.248Z,2.75
2022-11-07T12:19:15.453Z,1.75
2022-11-07T12:22:06.012Z,1.00
2022-11-07T12:24:57.756Z,1.00
2022-11-07T12:27:48.358Z,1.20
2022-11-07T12:30:45.699Z,2.55
2022-11-07T12:33:33.430Z,2.60
2022-11-07T12:36:56.511Z,0.65
2022-11-07T12:39:44.005Z,1.13
2022-11-07T12:42:31.733Z,1.45
2022-11-07T12:45:43.665Z,1.95
2022-11-07T12:48:54.269Z,2.55
2022-11-07T12:51:58.565Z,1.48
2022-11-07T12:54:52.119Z,1.35
2022-11-07T12:57:41.888Z,2.20
2022-11-07T13:00:30.694Z,1.83
2022-11-07T13:03:28.479Z,1.80
2022-11-07T13:06:26.761Z,2.13
2022-11-07T13:09:14.544Z,1.48
2022-11-07T13:12:21.952Z,1.42
2022-11-07T13:15:11.074Z,1.08
2022-11-07T13:17:58.498Z,1.48
2022-11-07T13:20:46.696Z,3.90
2022-11-07T13:23:34.118Z,2.35
2022-11-07T13:26:46.532Z,1.45
2022-11-07T13:29:39.622Z,1.10
2022-11-07T13:32:28.004Z,1.15
2022-11-07T13:35:36.180Z,0.63
2022-11-07T13:38:24.871Z,1.30
2022-11-07T13:41:13.012Z,1.50
2022-11-07T13:44:02.702Z,0.80
2022-11-07T13:46:52.229Z,2.30
2022-11-07T13:49:44.807Z,1.42
2022-11-07T13:52:40.082Z,2.45
2022-11-07T13:55:49.444Z,0.70
2022-11-07T13:58:39.394Z,1.17
2022-11-07T14:01:27.298Z,0.93
2022-11-07T14:04:19.218Z,1.45
2022-11-07T14:07:07.091Z,0.90
2022-11-07T14:09:59.418Z,1.42
2022-11-07T14:12:46.816Z,3.00
2022-11-07T14:15:34.982Z,2.33
2022-11-07T14:18:24.281Z,3.42
2022-11-07T14:21:24.293Z,1.52
2022-11-07T14:24:26.042Z,1.70
2022-11-07T14:27:16.750Z,4.15
2022-11-07T14:30:04.203Z,1.92
2022-11-07T14:32:53.361Z,1.98
2022-11-07T14:35:44.878Z,4.50
2022-11-07T14:38:32.777Z,1.58
2022-11-07T14:41:20.749Z,2.67
2022-11-07T14:44:08.872Z,7.43
2022-11-07T14:46:58.327Z,4.57
2022-11-07T14:49:46.531Z,2.00
2022-11-07T14:52:37.029Z,2.25
2022-11-07T14:55:30.613Z,1.20
2022-11-07T14:58:19.462Z,2.67
2022-11-07T15:01:07.170Z,1.27
2022-11-07T15:03:56.880Z,3.10
2022-11-07T15:06:45.026Z,1.85
2022-11-07T15:09:33.933Z,4.18
2022-11-07T15:12:29.301Z,3.13
2022-11-07T15:15:21.150Z,4.13
2022-11-07T15:18:08.844Z,5.38
2022-11-07T15:21:00.095Z,2.70
2022-11-07T15:23:47.856Z,4.72
2022-11-07T15:26:36.638Z,5.78
2022-11-07T15:29:24.075Z,4.07
2022-11-07T15:32:16.152Z,5.18
2022-11-07T15:35:37.974Z,2.63
2022-11-07T15:38:22.944Z,5.82
2022-11-07T15:41:11.804Z,5.77
2022-11-07T15:43:59.191Z,4.57
2022-11-07T15:46:47.502Z,3.50
2022-11-07T15:49:35.993Z,4.18
2022-11-07T15:52:23.303Z,3.87
2022-11-07T15:55:17.662Z,3.37
2022-11-07T15:58:04.885Z,4.80
2022-11-07T16:00:53.567Z,3.70
2022-11-07T16:03:40.856Z,4.87
2022-11-07T16:06:30.578Z,4.03
2022-11-07T16:09:20.035Z,4.53
2022-11-07T16:12:07.456Z,3.20
2022-11-07T16:14:59.639Z,3.17
2022-11-07T16:17:46.916Z,2.77
2022-11-07T16:20:34.783Z,4.93
2022-11-07T16:23:22.493Z,1.83
2022-11-07T16:26:12.923Z,3.23
2022-11-07T16:29:00.327Z,2.47
2022-11-07T16:31:47.730Z,5.27
2022-11-07T16:34:35.389Z,3.53
2022-11-07T16:37:22.642Z,3.33
2022-11-07T16:40:13.585Z,2.40
2022-11-07T16:43:03.383Z,3.13
2022-11-07T16:45:55.737Z,4.20
2022-11-07T16:48:43.566Z,3.67
2022-11-07T16:51:31.436Z,7.23
2022-11-07T16:54:19.191Z,3.47
2022-11-07T16:57:10.599Z,6.17
2022-11-07T16:59:58.307Z,3.83
2022-11-07T17:02:45.938Z,8.73
2022-11-07T17:05:33.627Z,8.33
2022-11-07T17:08:25.454Z,10.70
2022-11-07T17:11:14.339Z,13.03
2022-11-07T17:14:01.730Z,13.00
2022-11-07T17:16:49.678Z,11.93
2022-11-07T17:19:36.966Z,7.20
2022-11-07T17:22:24.723Z,7.47
2022-11-07T17:25:11.934Z,8.00
2022-11-07T17:27:59.120Z,6.97
2022-11-07T17:30:46.929Z,5.53
2022-11-07T17:33:35.162Z,5.53
2022-11-07T17:36:25.563Z,5.20
2022-11-07T17:39:17.758Z,4.97
2022-11-07T17:42:05.153Z,5.37
2022-11-07T17:44:52.843Z,5.17
2022-11-07T17:47:40.252Z,7.50
2022-11-07T17:50:28.134Z,5.73
2022-11-07T17:53:15.406Z,7.60
2022-11-07T17:56:03.141Z,5.23
2022-11-07T17:58:53.987Z,6.93
2022-11-07T18:01:41.814Z,8.03
2022-11-07T18:04:29.669Z,4.47
2022-11-07T18:07:18.042Z,9.03
2022-11-07T18:10:07.874Z,5.27
2022-11-07T18:12:57.539Z,5.87
2022-11-07T18:15:44.937Z,5.17
2022-11-07T18:18:32.226Z,5.67
2022-11-07T18:21:19.418Z,4.97
2022-11-07T18:24:06.925Z,3.93
2022-11-07T18:26:54.316Z,7.97
2022-11-07T18:29:42.112Z,5.70
2022-11-07T18:32:34.639Z,7.30
2022-11-07T18:35:23.001Z,6.33
2022-11-07T18:38:11.246Z,5.33
2022-11-07T18:41:00.003Z,6.20
2022-11-07T18:43:47.396Z,5.87
2022-11-07T18:46:34.797Z,8.27
2022-11-07T18:49:22.097Z,8.83
2022-11-07T18:52:09.911Z,6.40
2022-11-07T18:54:57.252Z,9.50
2022-11-07T18:57:44.766Z,7.33
2022-11-07T19:00:32.242Z,5.43
2022-11-07T19:03:20.165Z,3.97
2022-11-07T19:06:08.190Z,5.47
2022-11-07T19:08:55.519Z,5.03
2022-11-07T19:11:42.729Z,4.70
2022-11-07T19:14:30.270Z,4.83
2022-11-07T19:17:17.787Z,5.03
2022-11-07T19:20:06.372Z,4.03
2022-11-07T19:22:53.680Z,7.93
2022-11-07T19:25:44.299Z,4.87
2022-11-07T19:28:32.150Z,4.43
2022-11-07T19:31:19.956Z,7.97
2022-11-07T19:34:08.635Z,18.57
2022-11-07T19:36:56.556Z,14.53
2022-11-07T19:39:44.629Z,6.83
2022-11-07T19:42:32.501Z,9.93
2022-11-07T19:45:20.605Z,8.57
2022-11-07T19:48:08.532Z,6.20
2022-11-07T19:50:55.911Z,5.10
2022-11-07T19:53:43.831Z,2.93
2022-11-07T19:56:32.004Z,5.33
2022-11-07T19:59:19.897Z,4.60
2022-11-07T20:02:31.760Z,10.70
2022-11-07T20:05:24.301Z,6.13
2022-11-07T20:08:12.213Z,5.37
2022-11-07T20:10:59.632Z,6.20
2022-11-07T20:13:47.789Z,6.03
2022-11-07T20:16:37.256Z,8.40
2022-11-07T20:19:25.802Z,3.80
2022-11-07T20:22:13.739Z,4.80
2022-11-07T20:25:01.291Z,6.63
2022-11-07T20:27:49.064Z,5.13
2022-11-07T20:30:36.817Z,6.47
2022-11-07T20:33:25.732Z,4.97
2022-11-07T20:36:15.186Z,4.03
2022-11-07T20:39:02.813Z,3.33
2022-11-07T20:41:50.230Z,5.37
2022-11-07T20:44:37.421Z,2.90
2022-11-07T20:47:25.530Z,6.97
2022-11-07T20:50:13.027Z,10.70
2022-11-07T20:53:01.025Z,5.00
2022-11-07T20:55:48.453Z,6.60
2022-11-07T20:58:36.611Z,4.40
2022-11-07T21:01:26.448Z,6.70
2022-11-07T21:04:15.426Z,6.73
2022-11-07T21:07:02.860Z,5.20
2022-11-07T21:09:50.771Z,5.27
2022-11-07T21:12:38.189Z,4.87
2022-11-07T21:15:26.060Z,6.23
2022-11-07T21:18:13.723Z,8.57
2022-11-07T21:21:07.483Z,4.47
2022-11-07T21:23:56.698Z,5.13
2022-11-07T21:26:44.959Z,5.20
2022-11-07T21:29:34.008Z,4.73
2022-11-07T21:32:21.830Z,7.10
2022-11-07T21:35:09.841Z,5.53
2022-11-07T21:37:57.762Z,5.17
2022-11-07T21:40:45.628Z,3.87
2022-11-07T21:43:33.632Z,5.57
2022-11-07T21:46:25.986Z,3.73
2022-11-07T21:49:13.486Z,3.93
2022-11-07T21:52:01.493Z,3.60
2022-11-07T21:54:50.471Z,5.43
2022-11-07T21:57:38.237Z,4.37
2022-11-07T22:00:26.157Z,6.87
2022-11-07T22:05:48.457Z,4.27
2022-11-07T22:08:36.362Z,2.27
2022-11-07T22:11:23.765Z,3.37
2022-11-07T22:14:16.050Z,3.40
2022-11-07T22:17:03.569Z,3.93
2022-11-07T22:19:51.586Z,2.13
2022-11-07T22:22:38.973Z,3.03
2022-11-07T22:25:26.613Z,3.10
2022-11-07T22:28:14.024Z,3.17
2022-11-07T22:31:05.010Z,2.10
2022-11-07T22:33:53.942Z,3.10
2022-11-07T22:36:41.344Z,2.77
2022-11-07T22:39:29.241Z,3.33
2022-11-07T22:42:22.573Z,2.30
2022-11-07T22:45:11.815Z,2.57
2022-11-07T22:48:00.927Z,2.27
2022-11-07T22:50:48.335Z,2.10
2022-11-07T22:53:36.527Z,2.27
2022-11-07T22:56:24.260Z,2.33
2022-11-07T22:59:12.119Z,2.27
2022-11-07T23:02:00.177Z,2.13
2022-11-07T23:04:47.719Z,4.17
2022-11-07T23:07:35.803Z,3.17
2022-11-07T23:10:23.544Z,1.70
2022-11-07T23:13:11.032Z,2.20
2022-11-07T23:15:58.982Z,2.40
2022-11-07T23:18:46.912Z,3.37
2022-11-07T23:21:35.207Z,2.10
2022-11-07T23:24:25.854Z,4.03
2022-11-07T23:27:13.336Z,2.10
2022-11-07T23:30:01.235Z,2.90
2022-11-07T23:32:48.669Z,3.97
2022-11-07T23:35:36.563Z,3.17
2022-11-07T23:38:26.483Z,1.93
2022-11-07T23:41:15.280Z,2.50
2022-11-07T23:44:03.642Z,2.60
2022-11-07T23:47:10.267Z,1.90
2022-11-07T23:50:16.792Z,2.13
2022-11-07T23:53:24.194Z,3.60
2022-11-07T23:56:12.105Z,3.27
2022-11-07T23:59:18.262Z,2.80
